Terminal Aerodrome Forecast
Issued by NWS

Home | Current Version | Previous Version | Text Only | Print | Product List | Glossary On
Versions: 1 2 3 4 5 6 7 8 9 10 11 12 13 14 15 16 17 18
000
FTUS43 KGLD 292343 CCA
TAFMCK
TAF COR
KMCK 292343Z 3000/3024 17017G20KT P6SM VCTS BKN090CB BKN110
      TEMPO 3000/3001 -TSRA
     FM300100 16015KT P6SM VCTS BKN090CB
     FM300300 12010KT P6SM BKN060
     FM300500 15007KT P6SM SCT060
     FM300800 19006KT P6SM SCT100
     FM302000 16015KT P6SM BKN050=

USA.gov is the U.S. government's official web portal to all federal, state and local government web resources and services.